Terminal Aerodrome Forecast
Issued by NWS

Home | Current Version | Previous Version | Text Only | Print | Product List | Glossary On
Versions: 1 2 3 4 5 6 7 8 9 10 11 12 13 14
000
FTUS43 KDTX 252300
TAFDET
TAF
KDET 252320Z 2600/2624 21008KT P6SM SCT050 BKN150
     FM260400 21005KT P6SM BKN080 OVC150
     FM261400 22012G20KT P6SM SCT060 BKN150=

USA.gov is the U.S. government's official web portal to all federal, state and local government web resources and services.